This is the latest recevied weather packets stored in our database for station/object GW1497. If no packets are shown the sender has not sent any weather packets the latest 10 day(s).
| Time | Temp. | Humidity | Pressure | Rain* | Wind** | Luminosity | Snow |
|---|---|---|---|---|---|---|---|
| 1777779736 | 3.33° C | 84% | 1018.9 hPa | 0 mm | - | - | - |
| 1777777224 | 4.44° C | 79% | 1018.9 hPa | 0 mm | - | - | - |
| 1777775778 | 4.44° C | 77% | 1018.9 hPa | 0 mm | - | - | - |
| 1777771814 | 5.56° C | 73% | 1018.9 hPa | 0 mm | - | - | - |
| 1777769323 | 6.11° C | 68% | 1018.2 hPa | 0 mm | - | - | - |
| 1777767495 | 7.22° C | 66% | 1017.9 hPa | 0 mm | - | - | - |
| 1777765721 | 7.78° C | 57% | 1017.6 hPa | 0 mm | - | - | - |
| 1777763532 | 8.89° C | 51% | 1017.2 hPa | 0 mm | - | - | - |
| 1777758851 | 9.44° C | 51% | 1016.5 hPa | 0 mm | - | - | - |
| 1777755634 | 10.56° C | 45% | 1016.2 hPa | 0 mm | - | - | - |
| 1777751654 | 12.22° C | 40% | 1016.2 hPa | 0 mm | - | - | - |
| 1777750969 | 12.22° C | 40% | 1016.2 hPa | 0 mm | - | - | - |
| 1777746280 | 10° C | 46% | 1017.2 hPa | 0 mm | - | - | - |
| 1777745574 | 10° C | 45% | 1017.2 hPa | 0 mm | - | - | - |
| 1777737984 | 10° C | 46% | 1017.9 hPa | 0 mm | - | - | - |
| 1777735839 | 10° C | 49% | 1017.9 hPa | 0 mm | - | - | - |
| 1777735453 | 10° C | 46% | 1017.9 hPa | 0 mm | - | - | - |
| 1777734042 | 8.89° C | 51% | 1017.9 hPa | 0 mm | - | - | - |
| 1777732610 | 8.33° C | 56% | 1017.9 hPa | 0 mm | - | - | - |
| 1777727567 | 7.78° C | 86% | 1017.9 hPa | 0 mm | - | - | - |
| 1777726834 | 6.11° C | 88% | 1017.9 hPa | 0 mm | - | - | - |
| 1777723604 | 3.89° C | 99% | 1018.2 hPa | 0 mm | - | - | - |
| 1777722891 | 3.33° C | 99% | 1017.9 hPa | 0 mm | - | - | - |
| 1777722152 | 3.89° C | 99% | 1018.2 hPa | 0 mm | - | - | - |
| 1777717127 | 1.11° C | 99% | 1017.9 hPa | 0 mm | - | - | - |
* Rain since midnight (hover to see other rain measurements)
** Current wind speed in m/s (hover to see current wind gust speed)